Time;durP1;ratioP1;P1;durP2;ratioP2;P2;SDS_P1;SDS_P2;PMS_P1;PMS_P2;Temp;Humidity;BMP_temperature;BMP_pressure;BME280_temperature;BME280_humidity;BME280_pressure;Samples;Min_cycle;Max_cycle;Signal;HPM_P1;HPM_P2
2021/12/26 00:01:10;;;;;;;0.60;0.60;;;19.70;38.10;;;23.35;25.43;101151.38;5096663;28;20479;-77
2021/12/26 00:03:38;;;;;;;0.50;0.50;;;19.70;38.10;;;23.35;25.51;101156.69;5096768;28;20564;-77
2021/12/26 00:06:12;;;;;;;0.50;0.50;;;19.70;38.10;;;23.34;25.40;101152.34;5080502;28;20044;-77
2021/12/26 00:08:40;;;;;;;0.50;0.50;;;19.70;38.10;;;23.37;25.13;101159.25;5115566;28;20048;-77
2021/12/26 00:11:06;;;;;;;1.25;0.60;;;19.70;38.10;;;23.35;25.30;101147.84;5097477;28;20059;-77
2021/12/26 00:13:34;;;;;;;0.50;0.50;;;19.70;38.10;;;23.36;25.37;101152.25;5097669;28;20042;-77
2021/12/26 00:16:01;;;;;;;0.60;0.60;;;19.70;38.00;;;23.34;25.21;101146.13;5095420;28;20102;-77
2021/12/26 00:18:27;;;;;;;0.47;0.47;;;19.70;38.10;;;23.34;25.44;101148.78;5080181;28;20071;-77
2021/12/26 00:20:53;;;;;;;0.50;0.50;;;19.70;38.10;;;23.35;25.29;101148.69;5097200;28;20083;-77
2021/12/26 00:23:21;;;;;;;0.73;0.70;;;19.70;38.10;;;23.34;25.43;101149.69;5097247;28;20092;-77
2021/12/26 00:25:47;;;;;;;0.70;0.70;;;19.70;38.10;;;23.36;25.49;101150.41;5097254;28;20047;-77
2021/12/26 00:28:14;;;;;;;0.55;0.55;;;19.70;38.10;;;23.36;25.54;101145.09;5096882;28;20479;-77
2021/12/26 00:30:41;;;;;;;0.60;0.60;;;19.70;38.10;;;23.34;25.47;101140.78;5080157;28;20910;-77
2021/12/26 00:33:07;;;;;;;0.55;0.55;;;19.70;38.10;;;23.34;25.17;101138.13;5079073;28;20077;-77
2021/12/26 00:35:33;;;;;;;0.50;0.50;;;19.70;38.10;;;23.35;25.35;101140.69;5095281;28;20054;-77
2021/12/26 00:37:59;;;;;;;0.50;0.50;;;19.70;38.00;;;23.35;25.23;101131.84;5079884;28;20035;-77
2021/12/26 00:40:29;;;;;;;0.52;0.52;;;19.70;38.60;;;23.35;25.33;101124.69;5063801;28;20067;-77
2021/12/26 00:42:56;;;;;;;0.60;0.60;;;19.70;38.00;;;23.35;25.35;101132.69;5080280;28;20489;-77
2021/12/26 00:45:23;;;;;;;0.60;0.60;;;19.70;38.60;;;23.33;25.19;101121.28;5079729;28;20047;-77
2021/12/26 00:47:48;;;;;;;0.60;0.60;;;19.70;38.00;;;23.35;25.18;101129.16;5079839;28;20052;-77
2021/12/26 00:50:20;;;;;;;0.68;0.60;;;19.70;38.00;;;23.35;25.28;101134.50;5079847;28;20046;-77
2021/12/26 00:52:46;;;;;;;0.60;0.60;;;19.70;38.00;;;23.34;25.24;101130.13;5096756;28;20047;-77
2021/12/26 00:55:14;;;;;;;0.50;0.50;;;19.70;38.50;;;23.35;25.23;101138.03;5095862;28;20047;-77
2021/12/26 00:57:41;;;;;;;0.63;0.63;;;19.70;38.00;;;23.35;25.40;101140.69;5095478;28;20082;-77
2021/12/26 01:00:16;;;;;;;0.65;0.65;;;19.70;38.00;;;23.38;25.36;101139.66;5078519;28;20058;-77
2021/12/26 01:02:42;;;;;;;0.60;0.60;;;19.70;38.00;;;23.37;25.35;101132.59;5079186;28;20143;-77
2021/12/26 01:05:10;;;;;;;0.70;0.70;;;19.70;38.00;;;23.34;25.21;101139.00;5078371;28;20044;-77
2021/12/26 01:07:56;;;;;;;0.60;0.60;;;19.70;38.00;;;23.35;25.29;101135.34;5077765;28;20047;-77
2021/12/26 01:10:28;;;;;;;0.77;0.77;;;19.70;38.00;;;23.35;25.45;101130.03;5082289;28;20043;-77
2021/12/26 01:12:54;;;;;;;0.50;0.50;;;19.70;38.00;;;23.36;25.34;101134.41;5096889;28;20067;-77
2021/12/26 01:15:23;;;;;;;0.73;0.73;;;19.70;38.00;;;23.35;25.31;101131.84;5079684;28;20048;-77
2021/12/26 01:17:56;;;;;;;0.60;0.60;;;19.70;38.00;;;23.35;25.31;101143.34;5094671;28;20044;-77
2021/12/26 01:21:15;;;;;;;0.60;0.60;;;19.70;38.00;;;23.39;25.37;101150.22;5080283;28;20039;-77
2021/12/26 01:23:26;;;;;;;0.60;0.60;;;19.70;38.00;;;23.38;25.24;101150.31;5091995;28;20100;-77
2021/12/26 01:25:54;;;;;;;0.60;0.60;;;19.70;38.00;;;23.36;25.33;101150.41;5062937;28;20043;-77
2021/12/26 01:28:23;;;;;;;0.60;0.60;;;19.70;37.90;;;23.37;25.36;101148.59;5079002;28;20142;-77
2021/12/26 01:30:50;;;;;;;0.70;0.70;;;19.70;38.00;;;23.39;25.46;101157.34;5114729;28;20082;-77
2021/12/26 01:33:19;;;;;;;0.73;0.73;;;19.70;37.90;;;23.35;25.41;101153.19;5095308;28;20055;-77
2021/12/26 01:35:58;;;;;;;0.88;0.70;;;19.70;37.90;;;23.39;25.37;101160.00;5080897;28;20135;-77
2021/12/26 01:38:38;;;;;;;0.57;0.57;;;19.70;37.90;;;23.38;25.23;101153.84;5080941;28;20043;-77
2021/12/26 01:41:16;;;;;;;0.50;0.50;;;19.70;37.90;;;23.39;25.46;101149.34;5080442;28;20044;-77
2021/12/26 01:44:11;;;;;;;0.68;0.68;;;19.70;37.90;;;23.38;25.14;101155.66;5006134;28;20049;-77
2021/12/26 01:46:49;;;;;;;0.60;0.60;;;19.70;37.90;;;23.37;25.27;101145.94;5080231;28;20059;-77
2021/12/26 01:49:22;;;;;;;0.60;0.60;;;19.70;37.90;;;23.38;25.23;101150.31;5062889;28;20052;-78
2021/12/26 01:51:52;;;;;;;0.63;0.60;;;19.70;37.90;;;23.38;25.35;101153.84;5078238;28;20044;-77
2021/12/26 01:54:38;;;;;;;0.60;0.60;;;19.70;37.90;;;23.35;25.30;101146.03;5095219;28;20101;-77
2021/12/26 01:57:08;;;;;;;0.73;0.73;;;19.70;37.90;;;23.38;25.31;101155.66;5063993;28;20475;-77
2021/12/26 01:59:34;;;;;;;0.70;0.63;;;19.70;38.00;;;23.36;25.26;101149.56;5095552;28;20044;-77
2021/12/26 02:02:23;;;;;;;0.60;0.60;;;19.70;37.90;;;23.37;25.08;101148.59;5086667;28;20051;-77
2021/12/26 02:04:50;;;;;;;1.15;0.80;;;19.70;37.90;;;23.33;25.33;101133.78;5060958;28;20472;-77
2021/12/26 02:07:17;;;;;;;1.02;0.60;;;19.70;37.90;;;23.35;25.29;101138.03;5093906;28;20048;-77
2021/12/26 02:09:46;;;;;;;1.00;0.70;;;19.70;37.90;;;23.38;25.26;101137.81;5094066;28;20055;-77
2021/12/26 02:12:17;;;;;;;0.57;0.57;;;19.70;37.90;;;23.37;25.30;101129.91;5095611;28;20479;-77
2021/12/26 02:14:43;;;;;;;0.70;0.70;;;19.70;37.90;;;23.38;25.28;101132.47;5093383;28;20059;-77
2021/12/26 02:17:22;;;;;;;0.65;0.60;;;19.70;37.90;;;23.37;25.19;101127.25;5079138;28;20044;-77
2021/12/26 02:19:51;;;;;;;0.82;0.63;;;19.70;37.90;;;23.37;25.26;101125.47;5093611;28;20108;-77
2021/12/26 02:22:24;;;;;;;1.17;0.60;;;19.70;37.90;;;23.38;25.27;101126.31;5076683;28;20385;-77
2021/12/26 02:25:24;;;;;;;0.73;0.73;;;19.70;37.90;;;23.35;25.16;101122.00;5078130;28;20054;-77
2021/12/26 02:27:49;;;;;;;0.80;0.73;;;19.70;37.90;;;23.36;25.34;101131.75;5113175;28;20032;-77
2021/12/26 02:30:16;;;;;;;0.70;0.68;;;19.70;37.90;;;23.36;25.23;101142.41;5077709;28;20062;-77
2021/12/26 02:32:47;;;;;;;0.80;0.80;;;19.70;37.90;;;23.38;25.38;101139.66;5078602;28;20447;-77
2021/12/26 02:35:14;;;;;;;0.68;0.68;;;19.70;37.90;;;23.35;25.28;101140.69;5095266;28;20519;-77
2021/12/26 02:37:41;;;;;;;0.50;0.50;;;19.70;37.90;;;23.37;25.36;101137.91;5095174;28;20086;-77
2021/12/26 02:40:10;;;;;;;0.80;0.70;;;19.70;37.90;;;23.35;25.54;101140.69;5076524;28;20072;-77
2021/12/26 02:42:37;;;;;;;0.65;0.65;;;19.70;37.90;;;23.35;25.41;101130.03;5078299;28;20494;-77
2021/12/26 02:45:07;;;;;;;0.77;0.77;;;19.70;37.90;;;23.36;25.40;101129.06;5061526;28;20043;-77
2021/12/26 02:47:47;;;;;;;0.73;0.73;;;19.70;37.90;;;23.35;25.16;101123.84;5094589;28;20044;-77
2021/12/26 02:50:25;;;;;;;0.68;0.68;;;19.70;37.90;;;23.35;25.20;101131.84;5077894;28;20044;-77
2021/12/26 02:52:52;;;;;;;0.98;0.70;;;19.70;37.90;;;23.37;25.16;101130.78;5078128;28;20134;-77
2021/12/26 02:55:21;;;;;;;0.60;0.60;;;19.70;37.90;;;23.34;25.29;101132.78;5094712;28;20522;-77
2021/12/26 02:57:56;;;;;;;0.68;0.68;;;19.70;37.90;;;23.35;25.17;101138.03;5093878;28;20044;-77
2021/12/26 03:00:29;;;;;;;0.63;0.63;;;19.70;37.90;;;23.36;25.40;101150.41;5077752;28;20044;-77
2021/12/26 03:02:58;;;;;;;0.60;0.60;;;19.80;37.90;;;23.39;25.26;101144.00;5077744;28;20054;-77
2021/12/26 03:05:35;;;;;;;0.70;0.70;;;19.70;38.40;;;23.32;25.31;101124.88;5079318;28;20051;-77
2021/12/26 03:08:01;;;;;;;0.70;0.70;;;19.70;37.90;;;23.38;25.16;101127.16;5080759;28;20039;-77
2021/12/26 03:10:27;;;;;;;0.80;0.80;;;19.70;37.90;;;23.36;25.11;101126.41;5098360;28;20040;-77
2021/12/26 03:12:57;;;;;;;0.73;0.73;;;19.70;37.90;;;23.35;25.25;101127.34;5081474;28;20047;-77
2021/12/26 03:15:25;;;;;;;0.80;0.80;;;19.70;37.90;;;23.35;25.30;101123.84;5098130;28;20086;-77
2021/12/26 03:17:52;;;;;;;0.70;0.70;;;19.70;37.90;;;23.35;25.05;101121.16;5063273;28;20044;-77
2021/12/26 03:20:23;;;;;;;0.77;0.75;;;19.70;37.90;;;23.37;25.18;101143.25;5081271;28;20051;-77
2021/12/26 03:22:49;;;;;;;0.77;0.77;;;19.70;37.90;;;23.40;25.02;101135.91;5098519;28;20055;-77
2021/12/26 03:25:22;;;;;;;0.70;0.70;;;19.70;37.80;;;23.39;25.33;101133.31;5098186;28;20047;-77
2021/12/26 03:27:49;;;;;;;0.75;0.75;;;19.80;37.90;;;23.37;25.32;101130.78;5079867;28;20050;-77
2021/12/26 03:30:24;;;;;;;0.70;0.70;;;19.70;37.90;;;23.38;25.35;101134.31;5097844;28;20047;-77
2021/12/26 03:32:51;;;;;;;0.77;0.77;;;19.70;37.90;;;23.35;25.09;101123.84;5064670;28;20391;-77
2021/12/26 03:35:20;;;;;;;0.90;0.90;;;19.70;37.90;;;23.34;25.29;101114.09;5116310;28;20051;-77
2021/12/26 03:37:47;;;;;;;0.98;0.77;;;19.70;37.80;;;23.37;25.38;101125.47;5079247;28;20048;-77
2021/12/26 03:40:33;;;;;;;0.82;0.80;;;19.70;37.90;;;23.39;25.08;101118.19;5098895;28;20074;-77
2021/12/26 03:43:00;;;;;;;0.60;0.60;;;19.70;37.80;;;23.37;25.02;101122.78;5080923;28;20044;-77
2021/12/26 03:45:25;;;;;;;1.00;0.90;;;19.70;37.80;;;23.37;25.22;101128.13;5097752;28;20050;-77
2021/12/26 03:47:51;;;;;;;0.65;0.65;;;19.70;37.80;;;23.38;25.27;101121.81;5079409;28;20052;-77
2021/12/26 03:50:20;;;;;;;0.80;0.80;;;19.70;37.80;;;23.37;24.90;101128.13;5080772;28;20058;-77
2021/12/26 03:52:50;;;;;;;0.80;0.80;;;19.70;37.80;;;23.35;25.10;101113.16;5080643;28;20073;-77
2021/12/26 03:55:19;;;;;;;0.75;0.75;;;19.70;37.80;;;23.37;25.14;101119.25;5097869;28;20051;-77
2021/12/26 03:57:45;;;;;;;1.15;0.80;;;19.70;37.80;;;23.37;25.22;101112.13;5080332;28;20476;-77
2021/12/26 04:00:14;;;;;;;0.93;0.90;;;19.70;37.80;;;23.38;25.25;101115.63;5097591;28;20079;-77
2021/12/26 04:02:42;;;;;;;0.95;0.90;;;19.70;37.80;;;23.37;25.26;101113.91;5096651;28;20074;-77
2021/12/26 04:05:10;;;;;;;0.95;0.80;;;19.70;37.80;;;23.34;25.34;101117.66;5080634;28;20138;-77
2021/12/26 04:07:38;;;;;;;0.80;0.80;;;19.70;37.80;;;23.34;25.19;101115.00;5079045;28;20040;-77
2021/12/26 04:10:06;;;;;;;0.70;0.70;;;19.70;37.80;;;23.37;25.19;101122.78;5081069;28;20043;-77
2021/12/26 04:12:36;;;;;;;1.15;0.95;;;19.70;37.90;;;23.37;24.98;101114.78;5097358;28;20036;-77
2021/12/26 04:15:12;;;;;;;0.80;0.80;;;19.70;37.90;;;23.36;25.32;101112.22;5082235;28;20147;-77
2021/12/26 04:17:39;;;;;;;0.98;0.88;;;19.70;37.80;;;23.35;25.27;101115.84;5079903;28;20058;-78
2021/12/26 04:20:09;;;;;;;0.90;0.90;;;19.70;37.80;;;23.35;25.02;101114.00;5080394;28;20048;-77
2021/12/26 04:22:36;;;;;;;0.80;0.80;;;19.70;37.80;;;23.34;25.31;101109.66;5080210;28;20406;-77
2021/12/26 04:25:07;;;;;;;1.10;1.05;;;19.70;37.80;;;23.36;25.21;101110.41;5080249;28;20089;-77
2021/12/26 04:27:33;;;;;;;1.20;1.10;;;19.70;37.90;;;23.36;25.21;101105.06;5080208;28;20395;-78
2021/12/26 04:29:59;;;;;;;0.80;0.80;;;19.70;37.80;;;23.35;25.31;101103.34;5095861;28;20075;-77
2021/12/26 04:32:25;;;;;;;0.80;0.80;;;19.70;37.80;;;23.37;25.18;101105.91;5060152;28;20480;-77
2021/12/26 04:34:51;;;;;;;0.82;0.82;;;19.70;37.80;;;23.36;25.19;101099.72;5080030;28;20056;-77
2021/12/26 04:37:17;;;;;;;0.80;0.80;;;19.70;37.80;;;23.36;25.35;101105.06;5078776;28;20047;-77
2021/12/26 04:39:43;;;;;;;0.70;0.70;;;19.70;37.80;;;23.33;25.11;101101.75;5078512;28;20162;-77
2021/12/26 04:42:09;;;;;;;0.95;0.93;;;19.70;37.80;;;23.34;25.29;101104.31;5063322;28;20134;-77
2021/12/26 04:45:10;;;;;;;1.13;0.90;;;19.70;37.80;;;23.32;25.31;101114.22;5096463;28;20139;-77
2021/12/26 04:47:55;;;;;;;0.75;0.75;;;19.70;37.80;;;23.37;25.17;101119.25;5098940;28;20135;-77
2021/12/26 04:50:24;;;;;;;1.25;0.98;;;19.70;37.80;;;23.34;24.98;101114.09;5097004;28;20058;-77
2021/12/26 04:52:57;;;;;;;0.80;0.80;;;19.70;37.80;;;23.30;25.06;101105.47;5080740;28;20039;-77
2021/12/26 04:55:26;;;;;;;0.70;0.70;;;19.70;37.80;;;23.35;25.06;101108.66;5080276;28;20047;-77
2021/12/26 04:57:52;;;;;;;0.75;0.73;;;19.70;37.80;;;23.35;25.00;101107.81;5078767;28;20043;-77
2021/12/26 05:00:24;;;;;;;0.70;0.70;;;19.70;37.80;;;23.33;25.14;101101.75;5079868;28;20106;-77
2021/12/26 05:02:51;;;;;;;0.80;0.80;;;19.70;37.80;;;23.36;25.27;101097.06;5078571;28;20396;-77
2021/12/26 05:05:19;;;;;;;0.70;0.70;;;19.70;37.80;;;23.30;25.19;101087.66;5096577;28;20044;-77
2021/12/26 05:07:46;;;;;;;0.80;0.80;;;19.70;37.80;;;23.35;25.29;101095.34;5114269;28;20039;-77
2021/12/26 05:10:15;;;;;;;1.38;1.00;;;19.70;37.80;;;23.37;25.16;101104.13;5079531;28;20111;-77
2021/12/26 05:12:41;;;;;;;0.90;0.90;;;19.70;37.80;;;23.30;25.08;101089.47;5096567;28;20120;-77
2021/12/26 05:15:10;;;;;;;0.77;0.77;;;19.70;37.80;;;23.34;25.15;101096.31;5095099;28;20089;-77
2021/12/26 05:17:40;;;;;;;0.90;0.90;;;19.70;37.80;;;23.37;25.21;101104.13;5079537;28;20134;-77
2021/12/26 05:20:10;;;;;;;0.80;0.80;;;19.70;37.80;;;23.34;25.10;101098.09;5079864;28;20384;-77
2021/12/26 05:22:39;;;;;;;0.93;0.90;;;19.70;37.80;;;23.29;25.18;101091.28;5079389;28;20092;-77
2021/12/26 05:25:07;;;;;;;0.82;0.82;;;19.70;37.80;;;23.31;25.21;101094.69;5079915;28;20043;-77
2021/12/26 05:27:37;;;;;;;0.85;0.80;;;19.70;37.80;;;23.33;25.27;101093.75;5079645;28;20483;-77
2021/12/26 05:30:07;;;;;;;0.80;0.80;;;19.70;37.80;;;23.34;25.12;101098.09;5078638;28;20048;-77
2021/12/26 05:32:33;;;;;;;1.20;1.08;;;19.70;37.80;;;23.34;25.23;101095.44;5079210;28;20093;-77
2021/12/26 05:34:59;;;;;;;0.77;0.77;;;19.70;37.80;;;23.32;25.20;101098.22;5061479;28;20063;-77
2021/12/26 05:37:25;;;;;;;1.02;0.80;;;19.70;37.80;;;23.30;25.16;101087.66;5094590;28;20483;-77
2021/12/26 05:39:51;;;;;;;0.90;0.90;;;19.70;37.80;;;23.31;25.19;101078.69;5096120;28;20060;-77
2021/12/26 05:42:17;;;;;;;1.23;1.10;;;19.70;37.80;;;23.30;25.05;101084.13;5094960;28;20044;-77
2021/12/26 05:44:43;;;;;;;1.00;0.90;;;19.70;37.80;;;23.33;25.26;101083.06;5094305;28;20541;-77
2021/12/26 05:47:10;;;;;;;1.15;0.98;;;19.70;37.80;;;23.33;25.08;101083.06;5060280;28;20082;-77
2021/12/26 05:49:50;;;;;;;1.02;1.00;;;19.70;37.80;;;23.34;25.17;101080.31;5081162;28;20463;-77
2021/12/26 05:52:18;;;;;;;1.00;0.90;;;19.70;37.80;;;23.31;25.26;101073.34;5078047;28;20052;-77
2021/12/26 05:54:49;;;;;;;0.80;0.80;;;19.70;37.80;;;23.35;25.03;101083.81;5078808;28;20052;-77
2021/12/26 05:57:15;;;;;;;1.05;0.98;;;19.70;37.80;;;23.33;25.18;101083.91;5077096;28;20052;-77
2021/12/26 05:59:43;;;;;;;1.10;1.00;;;19.70;37.80;;;23.32;24.93;101082.19;5078877;28;20499;-77
2021/12/26 06:02:09;;;;;;;0.88;0.88;;;19.70;37.80;;;23.34;25.10;101085.63;5078861;28;20134;-77
2021/12/26 06:04:39;;;;;;;1.10;1.00;;;19.70;37.80;;;23.33;25.20;101081.25;5079032;28;20491;-77
2021/12/26 06:07:04;;;;;;;0.70;0.70;;;19.70;37.80;;;23.31;25.16;101073.34;5078797;28;20048;-77
2021/12/26 06:09:30;;;;;;;0.98;0.93;;;19.70;37.80;;;23.33;25.16;101080.41;5077424;28;20372;-77
2021/12/26 06:11:56;;;;;;;1.10;1.00;;;19.70;37.80;;;23.31;25.25;101073.34;5078792;28;20050;-77
2021/12/26 06:14:22;;;;;;;0.85;0.85;;;19.70;37.80;;;23.31;25.15;101078.69;5078403;28;20074;-77
2021/12/26 06:16:48;;;;;;;0.80;0.80;;;19.60;37.70;;;23.34;25.15;101080.31;5078186;28;20395;-77
2021/12/26 06:19:34;;;;;;;1.00;0.90;;;19.70;37.80;;;23.34;25.10;101077.63;5079597;28;20056;-77
2021/12/26 06:22:32;;;;;;;0.95;0.95;;;19.70;37.80;;;23.32;25.08;101071.53;5082223;28;20453;-77
2021/12/26 06:25:17;;;;;;;1.25;1.00;;;19.70;37.80;;;23.33;25.28;101077.75;5098938;28;20120;-77
2021/12/26 06:28:04;;;;;;;1.25;1.15;;;19.70;37.70;;;23.31;25.19;101073.34;5067831;28;20044;-77
2021/12/26 06:30:34;;;;;;;1.15;1.02;;;19.70;37.70;;;23.32;25.07;101082.19;5095879;28;20054;-77
2021/12/26 06:33:18;;;;;;;0.90;0.90;;;19.70;37.70;;;23.30;25.29;101078.78;5098601;28;20387;-77
2021/12/26 06:35:44;;;;;;;0.90;0.90;;;19.70;37.80;;;23.33;25.29;101086.59;5095093;28;20039;-77
2021/12/26 06:38:34;;;;;;;1.15;1.02;;;19.70;37.80;;;23.33;24.98;101091.06;5097159;28;20048;-77
2021/12/26 06:41:18;;;;;;;1.08;0.82;;;19.70;37.80;;;23.30;25.06;101081.44;5113534;28;20414;-76
2021/12/26 06:44:03;;;;;;;1.55;1.10;;;19.70;37.70;;;23.29;25.08;101083.28;5097978;28;20100;-77
2021/12/26 06:46:45;;;;;;;1.10;1.00;;;19.70;37.80;;;23.33;25.09;101086.59;5095195;28;20395;-77
2021/12/26 06:49:19;;;;;;;0.90;0.90;;;19.70;37.70;;;23.28;25.25;101083.38;5063894;28;20046;-77
2021/12/26 06:51:46;;;;;;;1.02;0.93;;;19.70;37.80;;;23.30;25.25;101085.00;5077881;28;20047;-77
2021/12/26 06:54:12;;;;;;;0.98;0.98;;;19.70;37.70;;;23.29;25.11;101080.59;5095160;28;20055;-77
2021/12/26 06:56:38;;;;;;;1.08;1.00;;;19.70;37.80;;;23.29;25.11;101085.09;5078026;28;20053;-77
2021/12/26 06:59:04;;;;;;;0.98;0.93;;;19.70;37.70;;;23.31;24.99;101092.03;5077943;28;20044;-77
2021/12/26 07:01:30;;;;;;;1.05;1.00;;;19.70;37.80;;;23.27;25.14;101095.00;5094739;28;20131;-77
2021/12/26 07:03:55;;;;;;;1.10;1.00;;;19.60;37.70;;;23.30;25.00;101097.47;5061493;28;20494;-77
2021/12/26 07:06:23;;;;;;;1.10;1.00;;;19.60;37.90;;;23.28;25.09;101086.91;5076464;28;20036;-77
2021/12/26 07:08:52;;;;;;;1.10;1.00;;;19.60;37.70;;;23.30;25.18;101092.13;5078194;28;20044;-77
2021/12/26 07:11:18;;;;;;;1.20;0.95;;;19.70;37.80;;;23.32;25.03;101100.88;5078197;28;20054;-77
2021/12/26 07:13:44;;;;;;;0.90;0.90;;;19.70;37.80;;;23.32;24.98;101106.22;5094188;28;20082;-77
2021/12/26 07:16:10;;;;;;;0.80;0.80;;;19.70;37.70;;;23.31;25.17;101104.53;5076361;28;20056;-77
2021/12/26 07:18:37;;;;;;;1.02;0.95;;;19.70;37.80;;;23.31;25.15;101101.84;5094844;28;20043;-77
2021/12/26 07:21:03;;;;;;;1.17;1.08;;;19.60;37.70;;;23.31;25.18;101107.19;5094797;28;20059;-77
2021/12/26 07:23:40;;;;;;;1.10;1.00;;;19.70;37.80;;;23.29;25.08;101107.28;5079539;28;20433;-77
2021/12/26 07:26:13;;;;;;;0.90;0.90;;;19.70;37.70;;;23.28;25.18;101105.56;5079290;28;20483;-77
2021/12/26 07:28:38;;;;;;;1.00;1.00;;;19.60;37.70;;;23.29;25.15;101107.28;5094089;28;20054;-77
2021/12/26 07:31:19;;;;;;;1.00;0.93;;;19.60;37.70;;;23.33;25.08;101107.94;5079796;28;20058;-77
2021/12/26 07:33:49;;;;;;;1.10;1.00;;;19.70;37.70;;;23.31;25.08;101115.19;5078647;28;20059;-77
2021/12/26 07:36:15;;;;;;;0.90;0.90;;;19.70;37.70;;;23.31;25.09;101112.53;5077416;28;20406;-77
2021/12/26 07:38:52;;;;;;;1.10;1.00;;;19.70;37.70;;;23.31;25.19;101113.38;5079177;28;20040;-77
2021/12/26 07:41:19;;;;;;;1.00;1.00;;;19.70;37.70;;;23.33;25.20;101115.94;5094539;28;20047;-77
2021/12/26 07:43:46;;;;;;;1.17;1.08;;;19.70;37.70;;;23.32;25.07;101108.88;5094185;28;20086;-77
2021/12/26 07:46:31;;;;;;;0.93;0.90;;;19.70;37.60;;;23.30;25.03;101111.69;5083077;28;20184;-77
2021/12/26 07:49:02;;;;;;;1.00;0.90;;;19.70;37.60;;;23.34;25.06;101114.09;5076737;28;20044;-77
2021/12/26 07:51:48;;;;;;;1.27;1.00;;;19.70;37.60;;;23.34;25.05;101106.97;5097158;28;20089;-77
2021/12/26 07:54:33;;;;;;;0.98;0.88;;;19.70;37.60;;;23.31;25.16;101100.03;5101279;28;20109;-77
2021/12/26 07:57:17;;;;;;;1.08;0.98;;;19.70;37.60;;;23.37;24.81;101111.25;5115988;28;20074;-77
2021/12/26 08:00:08;;;;;;;1.02;0.95;;;19.80;37.50;;;23.34;25.23;101104.31;5100431;28;20059;-77
2021/12/26 08:02:52;;;;;;;1.23;1.13;;;19.80;37.50;;;23.38;24.93;101104.94;5100452;28;20062;-77
2021/12/26 08:05:37;;;;;;;1.13;1.02;;;19.80;37.40;;;23.37;25.11;101103.22;5100875;28;20969;-77
2021/12/26 08:08:36;;;;;;;1.00;0.90;;;19.80;37.40;;;23.40;24.96;101106.53;5096601;28;20125;-77
2021/12/26 08:11:02;;;;;;;0.75;0.75;;;19.80;37.40;;;23.38;24.91;101105.81;5097391;28;20052;-77
2021/12/26 08:13:30;;;;;;;1.20;1.10;;;19.80;37.40;;;23.34;25.02;101101.66;5097408;28;20139;-77
2021/12/26 08:15:57;;;;;;;0.98;0.98;;;19.80;37.40;;;23.43;24.87;101108.16;5081033;28;20044;-77
2021/12/26 08:18:24;;;;;;;1.40;1.17;;;19.80;37.40;;;23.42;24.83;101106.44;5097232;28;20063;-77
2021/12/26 08:20:49;;;;;;;1.10;1.00;;;19.80;37.40;;;23.42;24.90;101109.09;5080383;28;20096;-77
2021/12/26 08:23:15;;;;;;;1.05;0.95;;;19.80;37.40;;;23.40;24.88;101093.19;5063693;28;20044;-77
2021/12/26 08:25:41;;;;;;;0.88;0.88;;;19.80;37.30;;;23.41;25.02;101094.91;5097163;28;20104;-77
2021/12/26 08:28:07;;;;;;;0.90;0.90;;;19.80;37.40;;;23.42;24.99;101093.97;5095755;28;20052;-77
2021/12/26 08:30:34;;;;;;;1.30;1.20;;;19.80;37.30;;;23.43;25.03;101097.50;5095535;28;20476;-77
2021/12/26 08:33:05;;;;;;;1.27;1.10;;;19.80;37.40;;;23.43;25.05;101098.34;5097386;28;20063;-77
2021/12/26 08:35:32;;;;;;;0.90;0.90;;;19.80;37.30;;;23.40;24.98;101090.53;5080762;28;20138;-77
2021/12/26 08:37:57;;;;;;;1.10;1.00;;;19.80;37.40;;;23.43;24.94;101093.00;5079435;28;20082;-77
2021/12/26 08:40:23;;;;;;;1.00;0.90;;;19.80;37.40;;;23.43;24.76;101098.34;5080564;28;20043;-77
2021/12/26 08:42:49;;;;;;;1.05;1.05;;;19.80;37.40;;;23.43;24.89;101097.50;5096984;28;20061;-77
2021/12/26 08:45:15;;;;;;;1.00;0.90;;;19.80;37.40;;;23.41;25.01;101092.25;5080005;28;20055;-77
2021/12/26 08:47:41;;;;;;;1.13;1.05;;;19.80;37.40;;;23.44;24.93;101105.38;5115022;28;20044;-77
2021/12/26 08:50:10;;;;;;;1.13;1.00;;;19.80;37.40;;;23.43;24.87;101101.00;5096836;28;20399;-77
2021/12/26 08:52:38;;;;;;;1.10;1.00;;;19.80;37.40;;;23.43;24.82;101106.34;5096789;28;20043;-77
2021/12/26 08:55:05;;;;;;;1.23;0.90;;;19.80;37.30;;;23.43;24.97;101109.00;5079868;28;20517;-77
2021/12/26 08:57:32;;;;;;;1.20;1.08;;;19.80;37.30;;;23.42;25.03;101109.97;5079376;28;20047;-77
2021/12/26 08:59:59;;;;;;;0.88;0.88;;;19.80;37.30;;;23.42;24.88;101096.63;5061399;28;20058;-77
2021/12/26 09:02:25;;;;;;;1.38;1.27;;;19.80;37.30;;;23.44;25.00;101097.38;5095332;28;20503;-77
2021/12/26 09:04:51;;;;;;;0.90;0.88;;;19.80;37.30;;;23.44;25.09;101091.19;5093475;28;20063;-77
2021/12/26 09:07:16;;;;;;;1.27;1.17;;;19.80;37.30;;;23.43;24.84;101098.34;5096072;28;20491;-77
2021/12/26 09:09:44;;;;;;;1.00;1.00;;;19.80;37.30;;;23.46;25.07;101113.28;5095175;28;20476;-78
2021/12/26 09:12:10;;;;;;;1.00;1.00;;;19.80;37.60;;;23.44;24.89;101105.38;5094444;28;20048;-77
2021/12/26 09:14:36;;;;;;;0.75;0.75;;;19.80;37.30;;;23.47;24.93;101125.66;5096765;28;20089;-77
2021/12/26 09:17:02;;;;;;;1.20;1.10;;;19.80;37.30;;;23.44;24.91;101112.56;5114396;28;20060;-77
2021/12/26 09:19:29;;;;;;;0.93;0.93;;;19.80;37.30;;;23.43;25.02;101117.00;5079663;28;20044;-77
2021/12/26 09:21:58;;;;;;;0.90;0.90;;;19.80;37.30;;;23.45;24.88;101111.56;5079299;28;20047;-77
2021/12/26 09:24:24;;;;;;;1.02;1.02;;;19.80;37.30;;;23.45;24.78;101114.25;5095982;28;20043;-77
2021/12/26 09:26:50;;;;;;;1.10;1.00;;;19.80;37.30;;;23.47;24.74;101129.19;5096380;28;20051;-77
2021/12/26 09:29:16;;;;;;;0.90;0.90;;;19.80;37.30;;;23.48;24.96;101119.38;5079238;28;20441;-77
2021/12/26 09:31:41;;;;;;;1.05;0.95;;;19.80;37.30;;;23.47;24.95;101114.97;5096796;28;20130;-77
2021/12/26 09:34:07;;;;;;;1.08;1.00;;;19.80;37.30;;;23.48;24.83;101122.88;5096204;28;20051;-77
2021/12/26 09:36:33;;;;;;;1.17;1.08;;;19.90;37.30;;;23.49;24.79;101119.28;5079098;28;20047;-77
2021/12/26 09:38:59;;;;;;;0.90;0.90;;;19.90;37.30;;;23.47;24.83;101110.53;5114108;28;20044;-77
2021/12/26 09:41:25;;;;;;;1.00;0.93;;;19.90;37.30;;;23.46;24.76;101108.81;5114540;28;20536;-77
2021/12/26 09:43:51;;;;;;;1.23;1.13;;;19.80;37.20;;;23.48;24.63;101106.88;5079421;28;20096;-77
2021/12/26 09:46:16;;;;;;;1.10;1.08;;;19.90;37.30;;;23.49;24.79;101113.09;5114321;28;20060;-77
2021/12/26 09:48:42;;;;;;;1.10;1.00;;;19.90;37.20;;;23.48;24.84;101119.38;5095727;28;20043;-77
2021/12/26 09:51:08;;;;;;;0.85;0.85;;;19.90;37.20;;;23.48;24.75;101117.56;5095936;28;20487;-77
2021/12/26 09:53:39;;;;;;;0.80;0.80;;;19.90;37.30;;;23.46;24.83;101111.47;5079411;28;20129;-77
2021/12/26 09:56:06;;;;;;;1.17;1.08;;;19.90;37.20;;;23.49;24.90;101113.09;5095962;28;20054;-77
2021/12/26 09:59:10;;;;;;;1.17;1.08;;;19.90;37.20;;;23.46;24.77;101108.81;5077221;28;20501;-77
2021/12/26 10:01:43;;;;;;;1.02;1.02;;;19.90;37.20;;;23.52;24.79;101106.66;5099263;28;20044;-77
2021/12/26 10:04:29;;;;;;;0.98;0.90;;;19.90;37.20;;;23.48;24.98;101114.88;5095714;28;20052;-77
2021/12/26 10:07:11;;;;;;;1.00;1.00;;;19.90;37.20;;;23.48;24.83;101111.38;5061066;28;20051;-77
2021/12/26 10:09:43;;;;;;;0.93;0.90;;;19.90;37.20;;;23.46;24.77;101103.47;5094580;28;20055;-77
2021/12/26 10:12:13;;;;;;;1.10;1.00;;;19.90;37.20;;;23.52;24.56;101104.00;5077667;28;20052;-77
2021/12/26 10:14:43;;;;;;;1.30;1.10;;;19.90;37.20;;;23.49;24.80;101092.59;5077421;28;20055;-77
2021/12/26 10:17:26;;;;;;;0.90;0.90;;;19.90;37.10;;;23.50;24.81;101088.09;5076660;28;20047;-77
2021/12/26 10:20:08;;;;;;;1.08;0.98;;;19.90;37.10;;;23.52;24.96;101088.81;5074978;28;20048;-77
2021/12/26 10:22:35;;;;;;;1.25;1.10;;;19.90;37.20;;;23.51;24.73;101080.97;5079015;28;20043;-78
2021/12/26 10:25:14;;;;;;;0.90;0.90;;;19.90;37.10;;;23.49;24.63;101079.25;5095416;28;20044;-77
2021/12/26 10:27:43;;;;;;;0.90;0.90;;;19.90;37.20;;;23.49;24.68;101073.91;5093798;28;20130;-77